Latest Weather Observations for Coolangatta

IDN60801

Issued at 5:32 am EDT Tuesday 21 November 2017 (issued every 30 minutes, with the page automatically refreshed every 10 minutes)

About weather observations | Map of weather stations | Latest weather observations for NSW | Other Formats
Station Details ID: 040717 Name: COOLANGATTA Lat: -28.17 Lon: 153.51 Height: 4.0 m
Data from the previous 72 hours. | See also: Recent months at Coolangatta
Date/Time
EDT
Temp
°C
App
Temp
°C
Dew
Point
°C
Rel
Hum
%
Delta-T
°C
Wind Press
QNH
hPa
Press
MSL
hPa
Rain since
9am
mm
Dir  Spd
km/h
Gust
km/h
Spd
kts
Gust
kts
21/05:30am 17.4 16.1 13.7 79 2.1 SSW 13 17 7 9 1018.2 1018.1 0.2
21/05:00am 17.9 16.7 14.0 78 2.2 SSW 13 17 7 9 1018.1 1018.0 0.2
21/04:30am 17.9 16.7 14.0 78 2.2 SSW 13 20 7 11 1018.1 1018.0 0.2
21/04:00am 18.1 16.2 14.2 78 2.2 S 17 24 9 13 1017.9 1017.8 0.2
21/03:30am 18.0 16.7 14.7 81 1.9 S 15 19 8 10 1018.1 1018.0 0.2
21/03:00am 18.1 17.2 14.8 81 1.9 S 13 19 7 10 1018.3 1018.2 0.2
21/02:30am 17.9 17.4 15.9 88 1.2 SSW 13 17 7 9 1018.5 1018.4 0.2
21/02:00am 17.8 17.8 16.3 91 0.9 SSW 11 15 6 8 1018.7 1018.6 0.2
21/01:30am 17.8 17.5 16.5 92 0.8 SW 13 17 7 9 1018.9 1018.8 0.0
21/01:00am 18.3 17.4 15.9 86 1.4 SSE 15 26 8 14 1019.6 1019.6 0.0
21/12:30am 18.3 14.8 15.6 84 1.6 SE 28 37 15 20 1019.9 1019.9 0.0
21/12:25am 18.7 15.2 15.6 82 1.8 SE 28 33 15 18 1019.9 1019.9 0.0
21/12:00am 18.2 18.1 16.0 87 1.3 SSW 11 15 6 8 1020.3 1020.3 0.0
 
Date/Time
EDT
Temp
°C
App
Temp
°C
Dew
Point
°C
Rel
Hum
%
Delta-T
°C
Wind Press
QNH
hPa
Press
MSL
hPa
Rain since
9am
mm
Dir  Spd
km/h
Gust
km/h
Spd
kts
Gust
kts
20/11:30pm 18.4 17.9 15.8 85 1.5 S 13 19 7 10 1020.1 1020.1 0.0
20/11:00pm 18.8 18.1 15.5 81 1.9 SSW 13 17 7 9 1020.0 1020.0 0.0
20/10:30pm 19.0 17.9 15.3 79 2.2 SSW 15 20 8 11 1020.3 1020.3 0.0
20/10:00pm 19.3 19.0 15.4 78 2.3 SSW 11 17 6 9 1020.2 1020.2 0.0
20/09:30pm 19.0 18.7 15.5 80 2.1 S 11 17 6 9 1020.1 1020.1 0.0
20/09:00pm 18.8 18.8 15.3 80 2.0 SSW 9 13 5 7 1020.1 1020.1 0.0
20/08:30pm 19.4 18.7 15.5 78 2.3 SW 13 17 7 9 1020.0 1020.0 0.0
20/08:00pm 19.9 19.6 15.5 76 2.6 SSW 11 13 6 7 1019.8 1019.8 0.0
20/07:30pm 19.7 19.7 15.1 75 2.7 SSW 9 11 5 6 1019.8 1019.8 0.0
20/07:00pm 19.9 19.1 15.1 74 2.8 S 13 19 7 10 1019.7 1019.7 0.0
20/06:30pm 21.1 20.5 15.6 71 3.3 S 13 20 7 11 1019.4 1019.4 0.0
20/06:00pm 20.2 18.6 15.0 72 3.0 SSE 17 24 9 13 1019.4 1019.4 0.0
20/05:30pm 21.1 16.5 16.1 73 3.0 SE 35 52 19 28 1019.1 1019.0 0.0
20/05:20pm 21.8 17.2 15.2 66 3.9 SSE 33 54 18 29 1019.0 1018.9 0.0
20/05:00pm 22.5 18.3 14.6 61 4.6 SSE 30 46 16 25 1018.6 1018.5 0.0
20/04:30pm 23.8 20.1 15.0 57 5.3 SSE 28 35 15 19 1018.7 1018.6 0.0
20/04:00pm 23.0 19.0 15.1 61 4.7 SSE 30 39 16 21 1018.8 1018.7 0.0
20/03:30pm 23.8 20.2 14.2 55 5.7 SSE 26 35 14 19 1018.9 1018.8 0.0
20/03:00pm 23.0 19.4 14.3 58 5.1 SSE 26 35 14 19 1019.3 1019.2 0.0
20/02:30pm 23.0 19.3 15.1 61 4.7 SE 28 37 15 20 1019.5 1019.5 0.0
20/02:00pm 24.4 20.9 15.6 58 5.3 SE 28 37 15 20 1019.5 1019.5 0.0
20/01:30pm 24.5 20.4 14.9 55 5.7 SE 30 43 16 23 1019.6 1019.6 0.0
20/01:00pm 24.6 21.7 16.1 59 5.2 SE 26 35 14 19 1019.7 1019.7 0.0
20/12:30pm 23.7 22.1 16.5 64 4.4 ESE 20 28 11 15 1020.2 1020.2 0.0
20/12:00pm 22.7 19.7 14.8 61 4.7 SSE 24 39 13 21 1020.5 1020.5 0.0
20/11:30am 23.0 19.2 14.8 60 4.9 S 28 39 15 21 1020.4 1020.4 0.0
20/11:00am 24.3 21.6 16.6 62 4.7 SSE 26 39 14 21 1020.3 1020.3 0.0
20/10:30am 23.4 19.8 14.1 56 5.5 SSE 26 35 14 19 1020.3 1020.3 0.0
20/10:00am 23.2 19.4 14.7 58 5.0 SSE 28 39 15 21 1020.2 1020.2 10.0
20/09:30am 21.7 18.1 14.1 62 4.4 S 26 37 14 20 1020.1 1020.1 10.0
20/09:00am 21.0 20.2 15.1 69 3.5 SSW 13 24 7 13 1020.0 1020.0 10.0
20/08:30am 19.9 18.0 14.3 70 3.2 SSW 17 24 9 13 1020.0 1020.0 10.0
20/08:00am 20.5 19.8 15.3 72 3.1 SSW 13 20 7 11 1019.8 1019.8 10.0
20/07:30am 18.1 17.6 14.8 81 1.9 SSW 11 15 6 8 1019.5 1019.5 10.0
20/07:00am 17.6 16.8 15.0 85 1.5 SSW 13 20 7 11 1019.4 1019.4 10.0
20/06:30am 17.1 15.6 14.2 83 1.7 SSW 15 22 8 12 1019.0 1018.9 10.0
20/06:00am 16.9 15.8 14.4 85 1.4 SSW 13 17 7 9 1018.5 1018.4 10.0
20/05:30am 17.1 15.7 14.6 85 1.4 SSW 15 22 8 12 1018.2 1018.1 10.0
20/05:00am 17.1 15.5 15.1 88 1.2 SSW 17 24 9 13 1018.0 1017.9 10.0
20/04:30am 16.6 16.7 15.5 93 0.6 SSW 9 15 5 8 1017.9 1017.8 10.0
20/04:00am 16.4 16.5 15.4 94 0.6 S 9 15 5 8 1017.9 1017.8 9.8
20/03:30am 16.1 15.7 15.3 95 0.5 SSW 11 13 6 7 1017.8 1017.7 9.8
20/03:00am 16.6 17.3 16.0 96 0.4 SW 7 9 4 5 1018.2 1018.1 9.8
20/02:58am 16.6 17.3 16.0 96 0.4 SW 7 11 4 6 1018.2 1018.1 9.8
20/02:30am 16.6 16.5 16.0 96 0.4 SSW 11 17 6 9 1018.4 1018.3 8.0
20/02:28am 16.7 16.6 16.1 96 0.4 SSW 11 17 6 9 1018.5 1018.4 7.8
20/02:25am 16.7 16.6 16.1 96 0.4 SSW 11 15 6 8 1018.6 1018.5 7.0
20/02:19am 16.8 17.5 16.2 96 0.4 S 7 13 4 7 1018.6 1018.5 6.8
20/02:00am 16.8 16.3 16.0 95 0.5 SSW 13 19 7 10 1018.6 1018.5 6.2
20/01:53am 16.8 15.9 15.8 94 0.6 SSW 15 22 8 12 1018.7 1018.6 5.2
20/01:43am 17.0 15.4 16.0 94 0.6 SSW 19 26 10 14 1018.8 1018.7 4.0
20/01:30am 17.0 16.5 16.0 94 0.6 SSW 13 20 7 11 1018.9 1018.8 3.0
20/01:00am 17.1 15.9 16.0 93 0.6 SSW 17 26 9 14 1019.1 1019.0 1.8
20/12:30am 17.3 16.5 16.2 93 0.7 SSW 15 20 8 11 1019.4 1019.4 1.6
20/12:00am 17.4 17.0 16.1 92 0.8 SSW 13 19 7 10 1019.5 1019.5 1.6
 
Date/Time
EDT
Temp
°C
App
Temp
°C
Dew
Point
°C
Rel
Hum
%
Delta-T
°C
Wind Press
QNH
hPa
Press
MSL
hPa
Rain since
9am
mm
Dir  Spd
km/h
Gust
km/h
Spd
kts
Gust
kts
19/11:43pm 17.4 16.9 15.9 91 0.9 SSW 13 20 7 11 1019.7 1019.7 1.6
19/11:30pm 17.5 17.0 15.8 90 1.0 S 13 19 7 10 1019.7 1019.7 1.4
19/11:00pm 17.4 17.2 15.6 89 1.1 SSW 11 15 6 8 1019.8 1019.8 0.6
19/10:30pm 17.8 18.1 16.0 89 1.1 SSW 9 13 5 7 1019.9 1019.9 0.6
19/10:00pm 18.3 17.4 15.9 86 1.4 SW 15 20 8 11 1019.9 1019.9 0.4
19/09:30pm 19.3 18.6 15.4 78 2.3 SSW 13 17 7 9 1019.8 1019.8 0.4
19/09:00pm 19.7 18.7 15.6 77 2.4 SE 15 19 8 10 1019.6 1019.6 0.4
19/08:30pm 19.8 16.9 16.1 79 2.2 SE 26 39 14 21 1019.3 1019.2 0.4
19/08:22pm 20.2 19.7 16.0 77 2.5 SSE 13 39 7 21 1019.2 1019.1 0.4
19/08:00pm 19.5 19.0 13.9 70 3.2 S 9 13 5 7 1018.9 1018.8 0.4
19/07:30pm 20.3 19.1 14.0 67 3.6 SSE 13 17 7 9 1018.6 1018.5 0.4
19/07:00pm 21.3 18.8 14.0 63 4.2 SSE 20 26 11 14 1018.3 1018.2 0.4
19/06:30pm 21.5 18.8 13.4 60 4.7 SSE 20 30 11 16 1018.1 1018.0 0.4
19/06:00pm 22.1 19.1 13.7 59 4.9 SE 22 30 12 16 1017.8 1017.7 0.4
19/05:30pm 22.6 19.4 14.2 59 4.9 SE 24 33 13 18 1017.7 1017.6 0.4
19/05:00pm 22.4 20.2 15.0 63 4.4 SE 20 32 11 17 1017.6 1017.5 0.4
19/04:30pm 19.6 19.7 16.6 83 1.8 S 11 19 6 10 1017.8 1017.7 0.0
19/04:16pm 18.8 13.0 12.8 68 3.4 SE 35 48 19 26 1018.1 1018.0 0.0
19/04:00pm 23.9 20.0 13.4 51 6.1 SE 26 35 14 19 1017.7 1017.6 0.0
19/03:30pm 23.8 20.6 14.2 55 5.7 SE 24 32 13 17 1017.9 1017.8 0.0
19/03:00pm 23.4 19.6 14.7 58 5.1 ESE 28 37 15 20 1018.2 1018.1 0.0
19/02:30pm 21.7 21.2 16.9 74 2.9 SE 15 24 8 13 1018.6 1018.5 0.0
19/02:00pm 23.0 19.1 14.3 58 5.1 ESE 28 35 15 19 1018.6 1018.5 0.0
19/01:30pm 23.5 20.1 14.8 58 5.2 ESE 26 35 14 19 1018.9 1018.8 0.0
19/01:00pm 23.6 19.8 14.6 57 5.3 ESE 28 35 15 19 1019.1 1019.0 0.0
19/12:30pm 23.1 18.7 15.2 61 4.7 ESE 32 43 17 23 1019.1 1019.0 0.0
19/12:00pm 23.6 19.3 15.4 60 4.9 ESE 32 39 17 21 1019.1 1019.0 0.0
19/11:30am 23.1 19.2 16.4 66 4.1 E 32 43 17 23 1019.0 1018.9 0.0
19/11:00am 23.1 20.0 16.6 67 4.0 ESE 28 39 15 21 1019.0 1018.9 0.0
19/10:30am 23.2 19.6 15.3 61 4.7 ESE 28 37 15 20 1018.7 1018.6 0.0
19/10:25am 23.9 20.7 15.4 59 5.1 ESE 26 37 14 20 1018.6 1018.5 0.0
19/10:00am 22.3 22.1 16.8 71 3.4 S 13 19 7 10 1018.6 1018.5 3.0
19/09:30am 20.2 20.3 17.4 84 1.7 SW 13 17 7 9 1018.5 1018.4 3.0
19/09:00am 19.0 19.1 17.5 91 0.9 SW 13 17 7 9 1018.5 1018.4 3.0
19/08:30am 18.4 18.2 16.7 90 1.0 S 13 17 7 9 1018.4 1018.3 2.8
19/08:00am 19.3 19.5 16.7 85 1.6 SSW 11 17 6 9 1017.8 1017.7 2.0
19/07:30am 18.6 18.4 16.6 88 1.2 SSW 13 20 7 11 1017.3 1017.2 2.0
19/07:00am 17.8 17.4 16.3 91 0.9 SSW 13 19 7 10 1016.9 1016.8 2.0
19/06:30am 17.1 17.5 16.3 95 0.5 S 9 13 5 7 1016.6 1016.5 2.0
19/06:00am 16.6 17.2 15.8 95 0.5 S 7 9 4 5 1016.4 1016.3 2.0
19/05:30am 16.8 18.0 16.0 95 0.5 SSW 4 6 2 3 1016.1 1016.0 2.0
19/05:00am 16.8 17.4 15.8 94 0.6 SSW 7 11 4 6 1015.7 1015.6 2.0
19/04:30am 16.9 17.2 16.1 95 0.5 S 9 11 5 6 1015.8 1015.7 2.0
19/04:00am 17.1 17.6 16.5 96 0.4 SSE 9 13 5 7 1016.0 1015.9 2.0
19/03:30am 17.0 17.4 16.2 95 0.5 SSW 9 13 5 7 1016.1 1016.0 1.8
19/03:00am 17.3 17.4 16.5 95 0.5 SW 11 15 6 8 1016.3 1016.2 1.6
19/02:30am 17.1 17.4 16.0 93 0.6 SSW 9 11 5 6 1016.3 1016.2 1.6
19/02:00am 17.6 17.4 16.6 94 0.6 SSW 13 20 7 11 1016.6 1016.5 1.6
19/01:30am 17.9 18.8 16.6 92 0.8 SSE 7 15 4 8 1017.0 1016.9 1.2
19/01:00am 17.6 18.1 16.5 93 0.7 SSE 9 13 5 7 1017.2 1017.1 1.2
19/12:30am 17.7 18.7 16.4 92 0.8 SSW 6 11 3 6 1017.3 1017.2 1.0
19/12:00am 18.0 18.2 16.7 92 0.8 SSE 11 19 6 10 1017.7 1017.6 1.0
 
Date/Time
EDT
Temp
°C
App
Temp
°C
Dew
Point
°C
Rel
Hum
%
Delta-T
°C
Wind Press
QNH
hPa
Press
MSL
hPa
Rain since
9am
mm
Dir  Spd
km/h
Gust
km/h
Spd
kts
Gust
kts
18/11:30pm 17.9 18.3 16.2 90 1.0 SSW 9 13 5 7 1017.8 1017.7 0.8
18/11:00pm 18.0 18.7 16.2 89 1.1 SSW 7 9 4 5 1017.9 1017.8 0.8
18/10:30pm 18.3 19.8 16.6 90 1.0 SSW 4 6 2 3 1017.9 1017.8 0.8
18/10:00pm 18.4 19.5 16.6 89 1.1 SSW 6 9 3 5 1018.0 1017.9 0.8
18/09:30pm 18.5 19.7 16.8 90 1.0 SW 6 9 3 5 1018.2 1018.1 0.8
18/09:00pm 18.6 19.3 17.1 91 0.9 SW 9 11 5 6 1018.1 1018.0 0.8
18/08:30pm 18.6 18.6 17.3 92 0.8 SW 13 15 7 8 1017.9 1017.8 0.8
18/08:00pm 19.0 19.2 17.7 92 0.8 SW 13 15 7 8 1017.5 1017.4 0.8
18/07:30pm 19.2 20.3 17.0 87 1.3 SW 7 11 4 6 1017.2 1017.1 0.8
18/07:00pm 19.8 21.1 17.0 84 1.7 S 6 9 3 5 1016.9 1016.8 0.8
18/06:30pm 21.9 21.5 15.3 66 3.9 ENE 11 24 6 13 1016.6 1016.5 0.6
18/06:00pm 22.1 21.5 14.5 62 4.5 E 11 17 6 9 1016.2 1016.1 0.6
18/05:30pm 22.5 20.7 14.4 60 4.8 E 17 26 9 14 1016.0 1015.9 0.6
18/05:00pm 22.3 20.3 14.9 63 4.4 E 19 24 10 13 1016.1 1016.0 0.6
18/04:30pm 20.9 20.4 15.9 73 3.0 ENE 13 28 7 15 1016.0 1015.9 0.6
18/04:17pm 21.1 17.9 14.3 65 4.0 E 24 41 13 22 1016.1 1016.0 0.6
18/04:00pm 22.7 21.3 15.5 64 4.3 ENE 17 22 9 12 1016.0 1015.9 0.6
18/03:30pm 20.4 21.8 17.4 83 1.8 SSW 6 9 3 5 1016.3 1016.2 0.6
18/03:00pm 20.4 21.1 17.0 81 2.1 WSW 9 13 5 7 1016.5 1016.4 0.6
18/02:30pm 20.2 20.6 16.2 78 2.4 WNW 9 11 5 6 1016.7 1016.6 0.6
18/02:00pm 20.0 17.4 16.0 78 2.4 NE 24 33 13 18 1016.9 1016.8 0.6
18/01:30pm 20.2 19.4 17.2 83 1.8 NNE 17 24 9 13 1017.2 1017.1 0.6
18/01:00pm 20.5 19.9 15.7 74 2.9 N 13 17 7 9 1017.3 1017.2 0.2
18/12:30pm 20.2 16.8 15.8 76 2.6 NE 28 41 15 22 1017.4 1017.3 0.2
18/12:00pm 20.5 19.8 14.2 67 3.6 N 11 26 6 14 1017.5 1017.4 0.0
18/11:30am 21.5 20.9 14.6 65 4.0 E 11 20 6 11 1017.5 1017.4 0.0
18/11:00am 20.7 18.3 15.3 71 3.2 NE 22 28 12 15 1017.6 1017.5 0.0
18/10:30am 20.5 16.3 15.7 74 2.9 ENE 32 41 17 22 1017.7 1017.6 0.0
18/10:00am 20.8 17.6 16.4 76 2.6 ENE 28 35 15 19 1017.6 1017.5 13.2
18/09:30am 21.0 18.4 16.8 77 2.6 ENE 26 33 14 18 1017.7 1017.6 13.2
18/09:00am 18.5 19.0 17.5 94 0.6 S 11 17 6 9 1018.0 1017.9 13.0
18/08:49am 18.6 19.1 17.4 93 0.7 WSW 11 17 6 9 1018.0 1017.9 13.0
18/08:30am 18.6 18.6 17.3 92 0.8 N 13 20 7 11 1018.1 1018.0 12.6
18/08:16am 18.7 19.2 17.5 93 0.7 NE 11 19 6 10 1018.1 1018.0 11.4
18/08:00am 18.5 20.0 17.7 95 0.5 NE 6 20 3 11 1018.2 1018.1 10.6
18/07:57am 18.0 19.6 17.0 94 0.6 E 4 9 2 5 1018.2 1018.1 10.2
18/07:56am 18.0 19.3 17.0 94 0.6 ESE 6 9 3 5 1018.2 1018.1 10.0
18/07:40am 17.9 19.4 16.6 92 0.8 ENE 4 11 2 6 1018.0 1017.9 6.6
18/07:30am 17.9 16.8 16.4 91 0.9 E 17 26 9 14 1017.9 1017.8 5.0
18/07:18am 18.6 18.6 17.3 92 0.8 SSE 13 19 7 10 1017.7 1017.6 2.4
18/07:00am 19.0 18.2 17.1 89 1.1 N 17 24 9 13 1017.3 1017.2 0.8

Other Formats:

Comma delimited format used in spreadsheet applications
http://www.bom.gov.au/fwo/IDN60801/IDN60801.94592.axf

JavaScript Object Notation format (JSON) in row-major order
http://www.bom.gov.au/fwo/IDN60801/IDN60801.94592.json